Time;durP1;ratioP1;P1;durP2;ratioP2;P2;SDS_P1;SDS_P2;PMS_P1;PMS_P2;Temp;Humidity;BMP_temperature;BMP_pressure;BME280_temperature;BME280_humidity;BME280_pressure;Samples;Min_cycle;Max_cycle;Signal;HPM_P1;HPM_P2
2021/12/13 00:04:45;;;;;;;;;;;16.70;69.80;;;;;;10569226;28;20174;-59
2021/12/13 00:09:50;;;;;;;4.03;2.25;;;16.70;69.80;;;;;;10563071;28;19912;-59
2021/12/13 00:14:54;;;;;;;3.28;2.42;;;16.70;69.80;;;;;;10545623;28;20114;-59
2021/12/13 00:20:07;;;;;;;2.90;2.58;;;16.60;69.80;;;;;;10562885;28;20028;-59
2021/12/13 00:25:14;;;;;;;2.97;2.33;;;16.60;69.80;;;;;;10563958;28;20027;-59
2021/12/13 00:30:25;;;;;;;4.93;2.88;;;16.60;69.80;;;;;;10562789;28;20035;-59
2021/12/13 00:35:52;;;;;;;3.28;2.60;;;16.60;69.80;;;;;;10580526;28;20023;-58
2021/12/13 00:41:17;;;;;;;3.33;2.17;;;16.60;69.80;;;;;;10562139;28;20078;-59
2021/12/13 00:46:19;;;;;;;4.97;2.28;;;16.60;69.80;;;;;;10559262;28;20058;-59
2021/12/13 00:51:43;;;;;;;3.20;2.50;;;16.50;69.80;;;;;;10536508;28;20040;-59
2021/12/13 00:57:03;;;;;;;2.55;1.95;;;16.50;69.80;;;;;;10520523;28;20111;-59
2021/12/13 01:02:15;;;;;;;;;;;16.50;69.80;;;;;;10538254;28;20490;-58
2021/12/13 01:07:33;;;;;;;6.10;2.63;;;16.50;69.90;;;;;;10552947;28;19919;-59
2021/12/13 01:12:35;;;;;;;4.05;2.58;;;16.50;69.90;;;;;;10536173;28;20032;-58
2021/12/13 01:18:36;;;;;;;4.43;2.30;;;16.50;69.80;;;;;;10536566;28;20039;-59
2021/12/13 01:23:28;;;;;;;4.15;2.83;;;16.50;69.80;;;;;;10540345;28;20472;-59
2021/12/13 01:28:37;;;;;;;3.83;2.45;;;16.50;69.80;;;;;;10544364;28;20093;-59
2021/12/13 01:33:43;;;;;;;3.40;2.55;;;16.40;69.70;;;;;;10544163;28;20024;-59
2021/12/13 01:38:55;;;;;;;3.08;2.65;;;16.50;69.70;;;;;;10543962;28;20030;-59
2021/12/13 01:44:05;;;;;;;3.22;2.55;;;16.40;69.70;;;;;;10543727;28;20040;-58
2021/12/13 01:49:07;;;;;;;3.20;2.45;;;16.40;69.70;;;;;;10561948;28;20472;-60
2021/12/13 01:54:14;;;;;;;3.65;2.55;;;16.40;69.70;;;;;;10568468;28;20467;-59
2021/12/13 02:04:36;;;;;;;3.13;2.17;;;16.40;69.70;;;;;;10585683;28;20466;-58
2021/12/13 02:09:44;;;;;;;4.38;2.85;;;16.40;69.60;;;;;;10567802;28;20080;-60
2021/12/13 02:16:56;;;;;;;3.70;2.67;;;16.40;69.70;;;;;;10567976;28;20055;-60
2021/12/13 02:20:29;;;;;;;3.10;2.15;;;16.40;69.70;;;;;;10570935;28;20118;-59
2021/12/13 02:25:48;;;;;;;2.75;2.30;;;16.30;69.60;;;;;;10568874;28;20038;-59
2021/12/13 02:31:00;;;;;;;3.15;2.38;;;16.30;69.60;;;;;;10585201;28;20027;-58
2021/12/13 02:36:16;;;;;;;2.80;2.38;;;16.30;69.60;;;;;;10583846;28;20028;-58
2021/12/13 02:41:22;;;;;;;2.67;2.17;;;16.30;69.60;;;;;;10568224;28;20094;-60
2021/12/13 02:46:23;;;;;;;3.45;2.00;;;16.30;69.70;;;;;;10553179;28;20059;-59
2021/12/13 02:51:45;;;;;;;2.83;2.53;;;16.30;69.70;;;;;;10551886;28;20071;-58
2021/12/13 02:57:06;;;;;;;3.40;2.40;;;16.30;69.60;;;;;;10554323;28;20113;-59
2021/12/13 03:02:20;;;;;;;2.42;1.83;;;16.30;69.70;;;;;;10549873;28;20027;-59
2021/12/13 03:07:34;;;;;;;4.20;2.60;;;16.30;69.60;;;;;;10549913;28;20062;-58
2021/12/13 03:12:35;;;;;;;2.75;2.20;;;16.30;69.60;;;;;;10566765;28;20479;-59
2021/12/13 03:17:59;;;;;;;3.20;2.20;;;16.20;69.50;;;;;;10565084;28;20031;-59
2021/12/13 03:23:23;;;;;;;3.25;2.28;;;16.30;69.60;;;;;;10565961;28;20038;-59
2021/12/13 03:28:37;;;;;;;2.70;2.35;;;16.30;69.50;;;;;;10583151;28;20028;-59
2021/12/13 03:34:22;;;;;;;3.78;2.45;;;16.20;69.50;;;;;;10582761;28;20024;-58
2021/12/13 03:39:35;;;;;;;4.10;2.95;;;16.20;69.50;;;;;;10565687;28;20035;-59
2021/12/13 03:44:48;;;;;;;3.67;2.58;;;16.20;69.50;;;;;;10560017;28;20055;-59
2021/12/13 03:49:54;;;;;;;2.97;2.40;;;16.20;69.50;;;;;;10547378;28;20403;-58
2021/12/13 03:54:59;;;;;;;3.17;2.53;;;16.20;69.50;;;;;;10563296;28;20070;-58
2021/12/13 04:00:00;;;;;;;2.58;2.03;;;16.20;69.50;;;;;;10563708;28;20015;-59
2021/12/13 04:05:12;;;;;;;2.92;2.45;;;16.20;69.50;;;;;;10563301;28;20046;-58
2021/12/13 04:10:26;;;;;;;3.25;2.67;;;16.10;69.40;;;;;;10581695;28;20035;-58
2021/12/13 04:15:48;;;;;;;3.03;2.15;;;16.20;69.40;;;;;;10562583;28;20028;-59
2021/12/13 04:20:58;;;;;;;3.50;2.15;;;16.10;69.40;;;;;;10565724;28;20361;-59
2021/12/13 04:26:03;;;;;;;3.05;2.25;;;16.20;69.40;;;;;;10562919;28;20111;-60
2021/12/13 04:31:09;;;;;;;3.20;2.60;;;16.10;69.40;;;;;;10563013;28;20530;-59
2021/12/13 04:36:13;;;;;;;3.65;2.40;;;16.10;69.50;;;;;;10580399;28;20035;-60
2021/12/13 04:41:26;;;;;;;2.53;2.00;;;16.10;69.40;;;;;;10562287;28;20020;-61
2021/12/13 04:46:30;;;;;;;3.67;1.98;;;16.10;69.30;;;;;;10562336;28;20047;-59
2021/12/13 04:52:07;;;;;;;2.70;2.30;;;16.10;69.30;;;;;;10561703;28;20419;-59
2021/12/13 04:57:08;;;;;;;2.90;2.35;;;16.10;69.30;;;;;;10539592;28;20380;-58
2021/12/13 05:02:11;;;;;;;3.95;2.65;;;16.10;69.30;;;;;;10561297;28;20028;-59
2021/12/13 05:07:12;;;;;;;3.55;2.33;;;16.10;69.30;;;;;;10544583;28;20422;-59
2021/12/13 05:12:17;;;;;;;2.88;2.33;;;16.10;69.30;;;;;;10561454;28;20038;-59
2021/12/13 05:17:25;;;;;;;3.05;2.00;;;16.10;69.30;;;;;;10559817;28;20055;-59
2021/12/13 05:22:30;;;;;;;3.45;2.00;;;16.10;69.30;;;;;;10543288;28;20073;-59
2021/12/13 05:27:36;;;;;;;3.15;2.00;;;16.10;69.40;;;;;;10559485;28;20309;-59
2021/12/13 05:32:48;;;;;;;3.10;2.17;;;16.10;69.30;;;;;;10559894;28;20154;-59
2021/12/13 05:38:00;;;;;;;2.85;2.47;;;16.00;69.40;;;;;;10542785;28;20055;-59
2021/12/13 05:43:13;;;;;;;2.17;1.88;;;16.10;69.50;;;;;;10560152;28;20043;-59
2021/12/13 05:48:39;;;;;;;2.30;1.98;;;16.30;69.00;;;;;;10558754;28;20052;-59
2021/12/13 05:53:46;;;;;;;2.67;2.30;;;16.80;67.70;;;;;;10544191;28;20051;-58
2021/12/13 05:58:52;;;;;;;3.90;2.55;;;17.10;66.70;;;;;;10542439;28;20032;-60
2021/12/13 06:04:55;;;;;;;2.75;1.95;;;17.30;66.40;;;;;;10561314;28;20088;-58
2021/12/13 06:10:07;;;;;;;3.22;2.20;;;17.40;66.50;;;;;;10580457;28;20387;-58
2021/12/13 06:15:17;;;;;;;4.30;2.55;;;17.80;66.30;;;;;;10574015;27;20127;-59
2021/12/13 06:20:38;;;;;;;6.18;2.30;;;17.90;67.30;;;;;;10585987;28;20110;-61
2021/12/13 06:25:43;;;;;;;3.55;2.45;;;18.10;66.80;;;;;;10570607;27;20040;-58
2021/12/13 06:31:03;;;;;;;4.93;2.38;;;18.20;67.00;;;;;;10567830;28;20490;-56
2021/12/13 06:36:04;;;;;;;6.82;2.20;;;18.20;67.20;;;;;;10567001;28;20084;-58
2021/12/13 06:41:19;;;;;;;3.83;1.83;;;18.40;66.90;;;;;;10542260;28;20106;-58
2021/12/13 06:46:23;;;;;;;38.40;8.90;;;18.40;66.40;;;;;;10563070;28;20249;-61
2021/12/13 06:51:36;;;;;;;32.65;6.72;;;18.50;66.60;;;;;;10566388;28;20499;-60
2021/12/13 06:56:39;;;;;;;55.50;11.32;;;18.60;66.00;;;;;;10560668;28;20048;-58
2021/12/13 07:01:40;;;;;;;36.00;8.77;;;18.70;65.70;;;;;;10546998;28;20027;-60
2021/12/13 07:06:41;;;;;;;35.40;7.53;;;18.60;65.80;;;;;;10563857;28;20395;-59
2021/12/13 07:11:54;;;;;;;35.85;9.30;;;18.70;65.50;;;;;;10563694;28;20039;-58
2021/12/13 07:16:55;;;;;;;27.90;7.47;;;18.70;65.40;;;;;;10567104;28;20032;-61
2021/12/13 07:22:00;;;;;;;30.27;6.35;;;18.60;65.50;;;;;;10561842;28;20047;-61
2021/12/13 07:27:14;;;;;;;32.28;7.28;;;18.80;64.80;;;;;;10556857;28;20099;-61
2021/12/13 07:32:29;;;;;;;19.65;5.25;;;18.80;64.60;;;;;;10554636;28;20491;-60
2021/12/13 07:37:39;;;;;;;26.15;6.57;;;18.80;64.50;;;;;;10576314;28;20431;-60
2021/12/13 07:42:40;;;;;;;31.98;6.40;;;18.70;64.60;;;;;;10576375;28;20073;-60
2021/12/13 07:47:43;;;;;;;21.58;5.40;;;18.80;64.60;;;;;;10561094;28;20097;-59
2021/12/13 07:52:44;;;;;;;20.10;5.15;;;19.00;64.10;;;;;;10559044;28;20039;-59
2021/12/13 07:57:46;;;;;;;33.55;6.43;;;19.00;64.00;;;;;;10548435;28;20123;-60
2021/12/13 08:03:20;;;;;;;20.23;4.70;;;19.10;64.00;;;;;;10563156;28;20015;-60
2021/12/13 08:08:26;;;;;;;18.88;4.82;;;19.20;63.70;;;;;;10563246;28;20039;-58
2021/12/13 08:13:31;;;;;;;19.42;5.20;;;19.10;64.20;;;;;;10581635;28;20039;-58
2021/12/13 08:18:42;;;;;;;18.73;4.90;;;19.30;63.90;;;;;;10562694;28;20028;-57
2021/12/13 08:23:47;;;;;;;16.20;4.97;;;19.20;63.90;;;;;;10563912;28;20057;-57
2021/12/13 08:28:54;;;;;;;16.42;4.57;;;19.30;64.00;;;;;;10580832;28;20039;-57
2021/12/13 08:34:34;;;;;;;18.15;4.70;;;19.40;63.90;;;;;;10562361;28;20057;-57
2021/12/13 08:39:37;;;;;;;18.73;5.10;;;19.30;64.00;;;;;;10554559;28;20102;-57
2021/12/13 08:44:44;;;;;;;18.50;4.45;;;19.40;63.80;;;;;;10545038;28;20043;-57
2021/12/13 08:49:56;;;;;;;15.25;3.90;;;19.40;63.90;;;;;;10562549;28;20055;-57
2021/12/13 08:55:33;;;;;;;19.13;4.32;;;19.40;63.90;;;;;;10561191;28;20063;-57
2021/12/13 09:01:13;;;;;;;19.15;4.38;;;19.30;64.30;;;;;;10564076;28;20110;-58
2021/12/13 09:06:16;;;;;;;10.80;3.83;;;19.40;64.90;;;;;;10576430;28;20043;-58
2021/12/13 09:11:43;;;;;;;14.43;4.15;;;19.40;64.20;;;;;;10579283;28;20040;-57
2021/12/13 09:17:09;;;;;;;14.20;3.70;;;19.30;64.20;;;;;;10559460;28;20043;-57
2021/12/13 09:22:21;;;;;;;14.38;4.22;;;19.00;65.10;;;;;;10576644;28;20031;-57
2021/12/13 09:27:30;;;;;;;13.00;3.85;;;18.90;65.60;;;;;;10564002;28;20178;-57
2021/12/13 09:33:06;;;;;;;9.23;3.75;;;18.70;65.80;;;;;;10577477;28;20032;-57
2021/12/13 09:38:56;;;;;;;14.82;4.60;;;18.90;66.00;;;;;;10545200;28;20092;-57
2021/12/13 09:44:09;;;;;;;15.30;4.30;;;18.80;66.10;;;;;;10576282;28;20068;-56
2021/12/13 09:49:21;;;;;;;11.95;3.15;;;18.70;66.40;;;;;;10587396;28;20056;-58
2021/12/13 09:54:28;;;;;;;23.00;5.40;;;18.80;66.40;;;;;;10587226;28;20028;-58
2021/12/13 09:59:50;;;;;;;19.17;3.85;;;18.90;66.60;;;;;;10568938;28;20023;-57
2021/12/13 10:04:52;;;;;;;16.27;4.40;;;19.00;66.60;;;;;;10543609;28;20126;-57
2021/12/13 10:10:13;;;;;;;8.85;3.47;;;18.90;66.50;;;;;;10567674;28;20032;-57
2021/12/13 10:15:48;;;;;;;16.55;3.75;;;18.90;66.20;;;;;;10583194;28;20031;-58
2021/12/13 10:21:33;;;;;;;11.57;3.42;;;18.90;66.00;;;;;;10568314;28;20044;-57
2021/12/13 10:26:40;;;;;;;14.18;3.88;;;18.90;66.20;;;;;;10490357;28;20032;-58
2021/12/13 10:31:55;;;;;;;19.60;3.40;;;18.70;66.30;;;;;;10566390;28;20023;-57
2021/12/13 10:37:08;;;;;;;9.57;3.17;;;18.90;66.20;;;;;;10579977;28;20032;-57
2021/12/13 10:42:20;;;;;;;10.30;3.50;;;18.90;66.20;;;;;;10559705;28;20077;-58
2021/12/13 10:47:34;;;;;;;10.90;2.80;;;19.00;66.00;;;;;;10584405;28;20047;-59
2021/12/13 10:52:40;;;;;;;11.23;3.40;;;18.80;66.40;;;;;;10549031;28;20035;-58
2021/12/13 10:57:49;;;;;;;12.13;3.10;;;18.90;66.30;;;;;;10566031;28;20122;-58
2021/12/13 11:03:06;;;;;;;17.83;3.00;;;19.00;66.30;;;;;;10554455;28;20024;-57
2021/12/13 11:08:09;;;;;;;9.13;3.15;;;18.80;67.20;;;;;;10565383;28;20082;-57
2021/12/13 11:13:10;;;;;;;9.40;2.38;;;18.70;68.00;;;;;;10565423;28;20455;-56
2021/12/13 11:18:18;;;;;;;8.32;2.90;;;18.60;68.30;;;;;;10550854;28;20071;-57
2021/12/13 11:23:21;;;;;;;8.43;3.28;;;18.60;68.60;;;;;;10565219;28;20027;-57
2021/12/13 11:28:25;;;;;;;8.98;2.97;;;18.70;68.00;;;;;;10564739;28;20062;-57
2021/12/13 11:33:38;;;;;;;11.63;2.88;;;18.70;68.50;;;;;;10564610;28;20039;-57
2021/12/13 11:39:10;;;;;;;8.00;2.55;;;18.80;67.30;;;;;;10582544;28;20088;-57
2021/12/13 11:44:45;;;;;;;8.05;2.95;;;18.70;67.30;;;;;;10581593;28;20032;-57
2021/12/13 11:50:30;;;;;;;6.55;2.40;;;18.50;67.80;;;;;;10563388;28;20191;-57
2021/12/13 11:56:17;;;;;;;10.00;2.55;;;18.40;67.90;;;;;;10580464;28;20503;-56
2021/12/13 12:02:10;;;;;;;10.40;2.85;;;18.70;67.40;;;;;;10580955;28;20361;-56
2021/12/13 12:07:14;;;;;;;13.63;2.70;;;18.60;67.30;;;;;;10578226;28;20048;-56
2021/12/13 12:13:03;;;;;;;7.82;2.00;;;18.70;67.20;;;;;;10580650;28;20046;-57
2021/12/13 12:18:13;;;;;;;8.60;3.05;;;18.90;66.30;;;;;;10576489;28;20407;-57
2021/12/13 12:23:30;;;;;;;7.25;2.85;;;18.80;66.30;;;;;;10543321;28;20029;-57
2021/12/13 12:28:36;;;;;;;7.32;2.08;;;18.80;66.50;;;;;;10559787;28;20070;-57
2021/12/13 12:33:40;;;;;;;11.05;2.63;;;18.60;66.80;;;;;;10560170;28;20055;-58
2021/12/13 12:39:04;;;;;;;5.68;2.10;;;18.70;66.60;;;;;;10550351;28;20439;-57
2021/12/13 12:44:04;;;;;;;5.00;2.03;;;18.70;66.30;;;;;;10545326;28;20051;-57
2021/12/13 12:49:21;;;;;;;5.22;1.90;;;18.80;66.10;;;;;;10561006;28;20092;-58
2021/12/13 12:54:22;;;;;;;7.15;2.20;;;18.80;65.80;;;;;;10561829;28;20028;-56
2021/12/13 12:59:34;;;;;;;10.10;2.28;;;18.70;66.00;;;;;;10561028;28;20395;-57
2021/12/13 13:04:44;;;;;;;4.68;1.52;;;18.70;65.80;;;;;;10545128;28;20027;-57
2021/12/13 13:10:01;;;;;;;6.10;1.77;;;18.80;65.70;;;;;;10562287;28;20081;-57
2021/12/13 13:15:22;;;;;;;7.82;1.80;;;18.70;65.80;;;;;;10560151;28;20054;-57
2021/12/13 13:20:55;;;;;;;6.30;1.95;;;18.70;65.50;;;;;;10560644;28;20023;-56
2021/12/13 13:25:59;;;;;;;4.85;1.85;;;18.70;65.60;;;;;;10561859;28;20511;-57
2021/12/13 13:31:15;;;;;;;2.92;1.50;;;18.60;65.70;;;;;;10560785;28;20140;-58
2021/12/13 13:36:39;;;;;;;4.53;1.60;;;18.60;65.70;;;;;;10547814;28;20423;-57
2021/12/13 13:41:41;;;;;;;3.83;1.63;;;18.70;65.40;;;;;;10560734;28;20060;-57
2021/12/13 13:46:42;;;;;;;4.20;1.77;;;18.80;65.20;;;;;;10556003;28;20042;-57
2021/12/13 13:51:43;;;;;;;4.82;2.03;;;18.70;65.30;;;;;;10578158;28;20051;-57
2021/12/13 13:56:47;;;;;;;4.57;1.70;;;18.80;65.10;;;;;;10559807;28;20034;-57
2021/12/13 14:02:05;;;;;;;6.30;1.65;;;18.70;65.00;;;;;;10560463;28;20031;-57
2021/12/13 14:07:15;;;;;;;11.38;3.00;;;18.60;65.30;;;;;;10560910;28;20028;-57
2021/12/13 14:12:31;;;;;;;5.32;1.60;;;18.60;65.50;;;;;;10560784;28;20368;-57
2021/12/13 14:17:54;;;;;;;7.18;1.63;;;18.80;65.00;;;;;;10560159;28;20024;-57
2021/12/13 14:23:25;;;;;;;13.15;3.40;;;18.80;65.30;;;;;;10578284;28;20028;-58
2021/12/13 14:28:55;;;;;;;3.60;1.75;;;18.60;65.50;;;;;;10584815;28;20032;-58
2021/12/13 14:33:57;;;;;;;3.10;1.50;;;18.60;65.20;;;;;;10567781;28;20028;-58
2021/12/13 14:39:09;;;;;;;5.38;1.67;;;18.60;65.00;;;;;;10567497;28;20052;-59
2021/12/13 14:44:14;;;;;;;4.53;1.48;;;18.70;64.70;;;;;;10585228;28;20023;-59
2021/12/13 14:49:24;;;;;;;3.33;1.70;;;18.70;64.50;;;;;;10566782;28;20051;-57
2021/12/13 14:54:30;;;;;;;3.13;1.48;;;18.80;64.20;;;;;;10567157;28;20046;-57
2021/12/13 14:59:34;;;;;;;3.47;1.63;;;18.90;63.90;;;;;;10566823;28;20027;-57
2021/12/13 15:04:36;;;;;;;5.90;1.85;;;18.90;63.70;;;;;;10566050;28;20058;-59
2021/12/13 15:09:52;;;;;;;8.77;1.92;;;18.80;64.30;;;;;;10554306;28;20023;-58
2021/12/13 15:15:03;;;;;;;3.20;1.58;;;18.80;64.30;;;;;;10566664;28;20341;-58
2021/12/13 15:20:23;;;;;;;3.33;1.42;;;18.80;64.10;;;;;;10544611;28;20440;-58
2021/12/13 15:25:38;;;;;;;4.82;1.50;;;18.90;64.10;;;;;;10548133;28;20110;-58
2021/12/13 15:30:38;;;;;;;5.18;1.60;;;18.70;64.40;;;;;;10565439;28;20030;-57
2021/12/13 15:35:46;;;;;;;3.10;1.48;;;18.60;64.70;;;;;;10564025;28;20024;-58
2021/12/13 15:40:54;;;;;;;2.88;1.13;;;18.70;64.40;;;;;;10560681;28;20126;-59
2021/12/13 15:46:15;;;;;;;3.78;1.25;;;18.70;64.30;;;;;;10561495;28;20027;-58
2021/12/13 15:51:20;;;;;;;6.63;1.75;;;18.70;64.40;;;;;;10565574;28;20077;-56
2021/12/13 15:56:26;;;;;;;5.93;1.50;;;18.80;64.40;;;;;;10563377;28;20035;-56
2021/12/13 16:02:02;;;;;;;10.73;2.30;;;18.90;64.50;;;;;;10563921;28;20027;-57
2021/12/13 16:07:09;;;;;;;16.02;3.05;;;18.80;64.80;;;;;;10558208;28;20476;-57
2021/12/13 16:12:14;;;;;;;12.68;2.83;;;18.70;65.00;;;;;;10563930;28;20134;-59
2021/12/13 16:17:30;;;;;;;16.00;3.08;;;18.70;65.20;;;;;;10561866;28;20027;-58
2021/12/13 16:23:00;;;;;;;15.90;3.35;;;18.60;65.60;;;;;;10545189;28;20482;-59
2021/12/13 16:28:24;;;;;;;17.38;3.53;;;18.40;66.20;;;;;;10559660;28;20039;-58
2021/12/13 16:33:30;;;;;;;16.85;3.00;;;18.40;66.70;;;;;;10579501;28;20076;-59
2021/12/13 16:38:31;;;;;;;14.68;2.80;;;18.30;67.00;;;;;;10579417;28;20031;-58
2021/12/13 16:43:36;;;;;;;14.30;3.38;;;18.30;67.10;;;;;;10567886;28;20016;-59
2021/12/13 16:48:54;;;;;;;21.95;3.72;;;18.40;67.30;;;;;;10554241;28;20139;-59
2021/12/13 16:53:55;;;;;;;19.27;3.42;;;18.50;67.30;;;;;;10542381;28;20027;-56
2021/12/13 16:58:57;;;;;;;17.52;3.45;;;18.60;66.90;;;;;;10554341;28;20023;-60
2021/12/13 17:04:19;;;;;;;17.70;5.53;;;18.50;66.90;;;;;;10526806;28;20024;-57
2021/12/13 17:09:22;;;;;;;14.02;4.63;;;18.60;66.60;;;;;;10538304;28;20054;-57
2021/12/13 17:14:24;;;;;;;10.38;4.00;;;18.60;66.10;;;;;;10542577;28;20027;-58
2021/12/13 17:19:29;;;;;;;11.23;3.63;;;18.60;67.70;;;;;;10542269;28;20112;-57
2021/12/13 17:24:39;;;;;;;10.02;3.72;;;19.00;69.30;;;;;;10552167;28;20035;-57
2021/12/13 17:29:52;;;;;;;12.27;3.67;;;19.00;69.40;;;;;;10549394;28;20039;-58
2021/12/13 17:35:04;;;;;;;9.63;3.60;;;18.90;69.00;;;;;;10550162;28;20095;-58
2021/12/13 17:40:42;;;;;;;10.68;4.35;;;18.80;68.80;;;;;;10557534;28;20015;-56
2021/12/13 17:45:49;;;;;;;9.32;2.90;;;18.90;69.60;;;;;;10573578;28;20031;-58
2021/12/13 17:51:20;;;;;;;12.38;2.80;;;18.70;69.80;;;;;;10578439;28;20620;-58
2021/12/13 17:56:23;;;;;;;14.02;3.50;;;18.50;69.30;;;;;;10565249;28;20052;-59
2021/12/13 18:01:38;;;;;;;11.93;3.00;;;18.50;69.20;;;;;;10581228;28;20062;-57
2021/12/13 18:06:41;;;;;;;8.40;2.80;;;18.50;69.20;;;;;;10586620;28;20096;-56
2021/12/13 18:12:09;;;;;;;11.50;2.90;;;18.30;69.10;;;;;;10585656;28;20081;-58
2021/12/13 18:17:21;;;;;;;10.95;2.53;;;18.40;68.80;;;;;;10582098;28;20066;-58
2021/12/13 18:22:48;;;;;;;6.88;2.83;;;18.30;68.80;;;;;;10580801;28;20111;-59
2021/12/13 18:28:08;;;;;;;14.82;2.25;;;18.40;68.50;;;;;;10543682;28;20051;-59
2021/12/13 18:33:23;;;;;;;9.18;2.60;;;18.50;68.80;;;;;;10575576;28;20035;-58
2021/12/13 18:39:00;;;;;;;10.68;3.30;;;18.60;68.30;;;;;;10548722;28;20050;-57
2021/12/13 18:44:31;;;;;;;12.27;3.03;;;18.50;68.50;;;;;;10542349;28;20083;-57
2021/12/13 18:49:34;;;;;;;7.57;2.55;;;18.50;68.50;;;;;;10582553;28;20407;-57
2021/12/13 18:55:24;;;;;;;6.82;2.28;;;18.40;68.60;;;;;;10550798;28;20122;-58
2021/12/13 19:00:40;;;;;;;7.82;1.70;;;18.40;68.80;;;;;;10564180;28;20043;-59
2021/12/13 19:05:55;;;;;;;9.07;2.28;;;18.50;68.60;;;;;;10547269;28;20028;-59
2021/12/13 19:11:01;;;;;;;7.70;2.45;;;18.40;68.60;;;;;;10535978;28;20480;-57
2021/12/13 19:16:22;;;;;;;6.15;1.73;;;18.40;68.30;;;;;;10569801;28;20067;-58
2021/12/13 19:21:32;;;;;;;6.05;2.20;;;18.50;68.10;;;;;;10538139;28;20032;-57
2021/12/13 19:26:34;;;;;;;6.97;2.17;;;18.50;68.10;;;;;;10564285;28;20145;-57
2021/12/13 19:31:47;;;;;;;5.85;2.05;;;18.50;68.20;;;;;;10562853;28;20038;-58
2021/12/13 19:37:14;;;;;;;6.43;1.83;;;18.40;68.40;;;;;;10562761;28;20088;-58
2021/12/13 19:42:21;;;;;;;5.38;1.80;;;18.30;68.60;;;;;;10554204;28;20122;-57
2021/12/13 19:47:42;;;;;;;6.38;1.73;;;18.20;68.70;;;;;;10561901;28;20028;-58
2021/12/13 19:53:06;;;;;;;4.35;1.42;;;18.40;68.50;;;;;;10546721;28;20070;-57
2021/12/13 19:58:29;;;;;;;5.80;1.63;;;18.40;68.30;;;;;;10564693;28;20487;-57
2021/12/13 20:03:49;;;;;;;10.40;1.77;;;18.50;68.00;;;;;;10559592;28;20023;-58
2021/12/13 20:09:03;;;;;;;6.13;2.15;;;18.50;68.10;;;;;;10541892;28;20142;-50
2021/12/13 20:14:28;;;;;;;7.65;1.88;;;18.50;68.70;;;;;;10576316;28;20035;-60
2021/12/13 20:19:39;;;;;;;5.03;1.75;;;18.40;68.60;;;;;;10554208;28;20035;-60
2021/12/13 20:24:48;;;;;;;6.65;1.88;;;18.30;68.90;;;;;;10558984;28;20028;-61
2021/12/13 20:30:13;;;;;;;8.13;2.20;;;18.20;69.00;;;;;;10562608;28;20070;-60
2021/12/13 20:35:41;;;;;;;6.57;1.98;;;18.10;69.20;;;;;;10579159;28;20115;-60
2021/12/13 20:40:48;;;;;;;5.80;1.58;;;18.00;69.50;;;;;;10579483;28;20112;-59
2021/12/13 20:45:57;;;;;;;6.20;1.50;;;17.90;69.50;;;;;;10561959;28;20024;-60
2021/12/13 20:51:19;;;;;;;4.28;1.48;;;17.80;69.70;;;;;;10541826;28;20504;-60
2021/12/13 20:56:33;;;;;;;5.20;1.90;;;17.80;69.80;;;;;;10571922;28;20135;-60
2021/12/13 21:01:52;;;;;;;4.40;2.05;;;17.70;69.80;;;;;;10562917;28;20023;-60
2021/12/13 21:07:22;;;;;;;5.85;1.88;;;17.70;69.80;;;;;;10580180;28;20023;-60
2021/12/13 21:12:37;;;;;;;3.60;1.40;;;17.60;69.80;;;;;;10562428;28;20111;-60
2021/12/13 21:17:51;;;;;;;6.20;1.35;;;17.60;70.00;;;;;;10561207;28;20092;-59
2021/12/13 21:22:58;;;;;;;5.60;1.85;;;17.50;70.00;;;;;;10579542;28;20036;-60
2021/12/13 21:28:12;;;;;;;4.05;1.25;;;17.50;70.00;;;;;;10562079;28;20063;-60
2021/12/13 21:33:19;;;;;;;4.43;1.80;;;17.50;69.90;;;;;;10579196;28;20031;-60
2021/12/13 21:43:55;;;;;;;2.60;1.00;;;17.40;69.90;;;;;;10573362;28;20036;-60
2021/12/13 21:48:59;;;;;;;2.53;1.77;;;17.40;69.90;;;;;;10587563;28;20074;-61
2021/12/13 21:54:09;;;;;;;3.00;1.40;;;17.40;70.00;;;;;;10555526;28;20110;-60
2021/12/13 21:59:47;;;;;;;3.15;1.30;;;17.30;69.90;;;;;;10569566;28;20084;-60
2021/12/13 22:05:15;;;;;;;4.00;1.50;;;17.30;69.90;;;;;;10580046;28;20047;-60
2021/12/13 22:10:27;;;;;;;2.17;1.45;;;17.30;69.90;;;;;;10570667;28;20036;-60
2021/12/13 22:15:40;;;;;;;3.05;1.35;;;17.30;69.90;;;;;;10568630;28;20032;-60
2021/12/13 22:20:51;;;;;;;2.67;1.40;;;17.20;69.90;;;;;;10568630;28;20027;-60
2021/12/13 22:25:57;;;;;;;3.10;1.70;;;17.20;69.90;;;;;;10551778;28;20051;-60
2021/12/13 22:31:11;;;;;;;4.82;1.80;;;17.10;69.90;;;;;;10568256;28;20054;-61
2021/12/13 22:36:13;;;;;;;3.08;1.35;;;17.10;69.90;;;;;;10551756;28;20027;-59
2021/12/13 22:41:38;;;;;;;4.53;1.48;;;17.10;69.80;;;;;;10567482;28;20016;-60
2021/12/13 22:47:03;;;;;;;3.53;1.42;;;17.10;69.90;;;;;;10545172;28;20425;-60
2021/12/13 22:52:11;;;;;;;2.28;1.40;;;17.10;69.90;;;;;;10568295;28;20062;-60
2021/12/13 22:57:12;;;;;;;3.65;1.52;;;17.10;69.90;;;;;;10537265;28;20047;-60
2021/12/13 23:02:35;;;;;;;2.92;1.42;;;17.00;70.00;;;;;;10566711;28;20039;-60
2021/12/13 23:07:37;;;;;;;4.40;1.30;;;17.00;69.90;;;;;;10566718;28;20088;-59
2021/12/13 23:17:59;;;;;;;3.00;1.38;;;17.00;70.00;;;;;;10569087;28;20035;-60
2021/12/13 23:23:00;;;;;;;2.33;1.20;;;17.00;69.90;;;;;;10565785;28;20283;-60
2021/12/13 23:28:07;;;;;;;2.70;1.70;;;16.90;69.90;;;;;;10565846;28;20388;-60
2021/12/13 23:33:15;;;;;;;2.85;1.23;;;16.90;69.90;;;;;;10565189;28;20502;-60
2021/12/13 23:42:23;;;;;;;1.63;0.90;;;16.90;69.90;;;;;;10565239;28;20028;-59
2021/12/13 23:49:17;;;;;;;2.70;1.30;;;16.90;69.90;;;;;;10556402;28;20051;-59
2021/12/13 23:54:18;;;;;;;2.95;1.35;;;16.90;69.90;;;;;;10555559;28;20466;-59
2021/12/13 23:59:20;;;;;;;1.45;1.27;;;16.80;69.80;;;;;;10563844;28;20027;-61
